Time;durP1;ratioP1;P1;durP2;ratioP2;P2;SDS_P1;SDS_P2;PMS_P1;PMS_P2;Temp;Humidity;BMP_temperature;BMP_pressure;BME280_temperature;BME280_humidity;BME280_pressure;Samples;Min_cycle;Max_cycle;Signal;HPM_P1;HPM_P2
2023/06/15 00:02:08;;;;;;;;;17.25;16.75;;;;;25.93;33.50;101092.34;6309093;22;45389;-67
2023/06/15 00:04:36;;;;;;;;;14.00;13.25;;;;;26.09;33.19;101124.66;6309111;22;45257;-67
2023/06/15 00:07:02;;;;;;;;;21.25;18.75;;;;;25.97;33.50;101101.19;6279827;22;46017;-67
2023/06/15 00:09:27;;;;;;;;;15.00;15.00;;;;;26.01;33.56;101103.50;6309172;22;45405;-67
2023/06/15 00:11:53;;;;;;;;;17.00;14.75;;;;;25.96;33.90;101105.78;6308792;22;45555;-66
2023/06/15 00:14:18;;;;;;;;;18.75;18.00;;;;;25.95;33.80;101098.59;6309297;22;45317;-67
2023/06/15 00:16:47;;;;;;;;;19.00;18.75;;;;;25.83;33.62;101092.34;6308527;22;45420;-67
2023/06/15 00:19:15;;;;;;;;;21.50;20.50;;;;;25.80;33.92;101091.75;6308928;22;45411;-67
2023/06/15 00:21:41;;;;;;;;;18.00;18.00;;;;;25.97;33.76;101123.06;6308591;22;45360;-67
2023/06/15 00:24:09;;;;;;;;;20.25;19.75;;;;;25.69;34.49;101074.47;6308769;22;45320;-67
2023/06/15 00:26:34;;;;;;;;;17.75;17.50;;;;;25.79;34.38;101098.22;6307614;22;46049;-67
2023/06/15 00:29:00;;;;;;;;;17.00;17.00;;;;;25.85;34.55;101106.72;6308521;22;45327;-67
2023/06/15 00:31:28;;;;;;;;;16.75;16.75;;;;;25.73;34.62;101102.38;6308934;22;45492;-67
2023/06/15 00:33:55;;;;;;;;;19.75;17.50;;;;;25.58;34.61;101080.03;6308821;22;45293;-67
2023/06/15 00:36:21;;;;;;;;;17.75;17.75;;;;;25.73;34.99;101115.19;6308301;22;46202;-67
2023/06/15 00:38:46;;;;;;;;;18.75;18.75;;;;;25.53;35.27;101087.81;6308609;22;45398;-67
2023/06/15 00:41:14;;;;;;;;;19.75;18.75;;;;;25.74;35.00;101131.44;6308985;22;45561;-67
2023/06/15 00:43:41;;;;;;;;;22.75;20.75;;;;;25.63;35.49;101132.44;6308370;22;45345;-67
2023/06/15 00:46:07;;;;;;;;;27.00;24.50;;;;;25.61;35.35;101117.16;6280628;22;47493;-67
2023/06/15 00:48:36;;;;;;;;;29.25;26.50;;;;;25.69;35.65;101134.63;6307846;22;45246;-67
2023/06/15 00:51:03;;;;;;;;;28.50;27.00;;;;;25.53;35.83;101117.88;6307267;22;45449;-67
2023/06/15 00:53:31;;;;;;;;;25.25;23.50;;;;;25.53;35.73;101115.13;6308473;22;45252;-67
2023/06/15 00:55:56;;;;;;;;;26.50;24.50;;;;;25.52;35.54;101116.97;6308252;22;45375;-67
2023/06/15 00:58:24;;;;;;;;;26.50;22.25;;;;;25.55;35.89;101132.25;6308407;22;45411;-67
2023/06/15 01:00:53;;;;;;;;;25.50;22.75;;;;;25.56;35.66;101133.09;6308562;22;45340;-67
2023/06/15 01:03:20;;;;;;;;;25.25;23.50;;;;;25.30;36.21;101101.66;6280133;22;45685;-66
2023/06/15 01:05:52;;;;;;;;;23.25;23.25;;;;;25.37;35.74;101118.34;6280572;22;47203;-67
2023/06/15 01:08:20;;;;;;;;;25.50;24.00;;;;;25.51;35.99;101142.59;6308087;22;45374;-67
2023/06/15 01:10:47;;;;;;;;;25.25;22.75;;;;;25.25;36.44;101114.81;6280490;22;45387;-67
2023/06/15 01:13:14;;;;;;;;;20.25;20.00;;;;;25.26;36.39;101119.31;6308399;22;45239;-67
2023/06/15 01:15:42;;;;;;;;;22.00;21.00;;;;;25.39;36.24;101137.34;6308690;22;45449;-67
2023/06/15 01:18:08;;;;;;;;;22.00;21.00;;;;;25.35;35.91;101149.56;6308211;22;45245;-67
2023/06/15 01:20:47;;;;;;;;;19.50;18.75;;;;;25.19;36.21;101126.28;6308204;22;45536;-67
2023/06/15 01:23:41;;;;;;;;;22.75;20.75;;;;;25.08;36.68;101121.78;6307657;22;45287;-67
2023/06/15 01:26:11;;;;;;;;;22.25;20.25;;;;;25.05;36.66;101113.84;6308389;22;45411;-67
2023/06/15 01:28:41;;;;;;;;;22.75;21.75;;;;;25.00;36.68;101115.25;6307553;22;45364;-67
2023/06/15 01:31:09;;;;;;;;;22.00;17.00;;;;;24.99;36.72;101114.38;6278746;22;45559;-67
2023/06/15 01:33:44;;;;;;;;;19.00;19.00;;;;;24.96;36.70;101115.53;6280547;22;45456;-67
2023/06/15 01:36:12;;;;;;;;;23.50;21.00;;;;;25.11;36.97;101140.63;6308369;22;46141;-66
2023/06/15 01:38:40;;;;;;;;;19.25;17.00;;;;;24.91;36.78;101111.47;6307847;22;45515;-67
2023/06/15 01:41:08;;;;;;;;;20.00;19.50;;;;;24.99;36.89;101133.50;6307196;22;45354;-66
2023/06/15 01:43:37;;;;;;;;;21.25;20.00;;;;;24.88;37.10;101128.13;6308333;22;45247;-67
2023/06/15 01:46:05;;;;;;;;;19.75;19.75;;;;;24.83;37.32;101125.78;6280278;22;48224;-66
2023/06/15 01:48:31;;;;;;;;;20.25;19.50;;;;;24.71;36.68;101108.63;6279768;22;45513;-67
2023/06/15 01:51:00;;;;;;;;;18.75;17.25;;;;;24.72;37.35;101115.78;6279203;22;45515;-67
2023/06/15 01:53:28;;;;;;;;;17.00;16.00;;;;;24.66;37.08;101108.16;6306651;22;45208;-66
2023/06/15 01:55:54;;;;;;;;;17.25;16.50;;;;;24.62;37.30;101108.53;6308374;22;45401;-67
2023/06/15 01:58:22;;;;;;;;;18.75;17.50;;;;;24.77;37.18;101148.16;6308096;22;45418;-66
2023/06/15 02:00:47;;;;;;;;;18.50;18.25;;;;;24.68;37.08;101132.59;6280313;22;45371;-67
2023/06/15 02:03:15;;;;;;;;;20.25;18.50;;;;;24.55;37.55;101111.78;6280361;22;45542;-67
2023/06/15 02:05:44;;;;;;;;;16.50;16.25;;;;;24.56;37.08;101120.84;6306941;22;46582;-66
2023/06/15 02:08:11;;;;;;;;;14.00;14.00;;;;;24.53;36.83;101119.22;6279979;22;45708;-67
2023/06/15 02:10:37;;;;;;;;;18.25;15.75;;;;;24.50;36.83;101118.63;6280613;22;45343;-67
2023/06/15 02:13:03;;;;;;;;;13.25;13.25;;;;;24.49;37.17;101117.75;6308243;22;45234;-67
2023/06/15 02:15:29;;;;;;;;;13.00;13.00;;;;;24.55;37.51;101138.22;6308499;22;45715;-66
2023/06/15 02:18:04;;;;;;;;;14.00;12.25;;;;;24.55;37.52;101135.50;6308218;22;45297;-67
2023/06/15 02:20:31;;;;;;;;;13.00;13.00;;;;;24.39;37.42;101114.94;6308161;22;45326;-67
2023/06/15 02:22:57;;;;;;;;;15.25;15.00;;;;;24.42;37.70;101125.59;6279181;22;45352;-67
2023/06/15 02:25:27;;;;;;;;;14.00;14.00;;;;;24.40;37.42;101126.72;6307849;22;45426;-66
2023/06/15 02:27:53;;;;;;;;;12.75;12.00;;;;;24.30;37.77;101106.66;6306076;22;45468;-66
2023/06/15 02:30:20;;;;;;;;;12.75;12.75;;;;;24.29;37.35;101111.28;6280328;22;45288;-67
2023/06/15 02:32:47;;;;;;;;;12.75;11.25;;;;;24.30;37.77;101115.72;6308170;22;45229;-67
2023/06/15 02:35:13;;;;;;;;;14.25;14.25;;;;;24.22;37.69;101104.56;6308190;22;45551;-66
2023/06/15 02:37:39;;;;;;;;;16.75;16.75;;;;;24.38;37.91;101135.03;6307721;22;45264;-66
2023/06/15 02:40:06;;;;;;;;;17.50;16.75;;;;;24.26;37.59;101127.88;6279788;22;45360;-67
2023/06/15 02:42:35;;;;;;;;;16.75;16.00;;;;;24.24;37.45;101129.88;6279914;22;45838;-66
2023/06/15 02:45:07;;;;;;;;;18.75;17.75;;;;;24.18;37.43;101130.41;6279799;22;47137;-67
2023/06/15 02:47:37;;;;;;;;;18.00;16.00;;;;;24.12;37.99;101115.38;6279632;22;45420;-66
2023/06/15 02:50:05;;;;;;;;;16.00;15.75;;;;;24.13;37.68;101121.72;6308099;22;45364;-67
2023/06/15 02:52:31;;;;;;;;;13.75;13.75;;;;;24.04;37.89;101120.66;6307251;22;45366;-66
2023/06/15 02:55:05;;;;;;;;;16.00;14.75;;;;;24.08;38.71;101124.84;6308201;22;46176;-66
2023/06/15 02:57:33;;;;;;;;;17.00;17.00;;;;;24.00;38.33;101113.69;6307415;22;45543;-67
2023/06/15 02:59:59;;;;;;;;;17.75;16.75;;;;;23.93;38.68;101107.91;6308008;22;45389;-66
2023/06/15 03:02:25;;;;;;;;;14.50;14.25;;;;;23.83;37.86;101099.59;6307744;22;45319;-67
2023/06/15 03:04:50;;;;;;;;;13.00;13.00;;;;;24.01;37.89;101131.81;6307628;22;46025;-67
2023/06/15 03:07:20;;;;;;;;;13.50;12.75;;;;;23.85;38.28;101099.47;6307178;22;45385;-66
2023/06/15 03:09:50;;;;;;;;;15.75;14.75;;;;;23.89;38.37;101111.00;6308119;22;45334;-66
2023/06/15 03:12:18;;;;;;;;;14.25;14.25;;;;;23.99;38.47;101134.66;6307365;22;45533;-67
2023/06/15 03:14:44;;;;;;;;;14.00;14.00;;;;;23.86;38.33;101110.25;6279729;22;47305;-66
2023/06/15 03:17:12;;;;;;;;;16.00;14.00;;;;;23.93;37.74;101129.69;6307404;22;45252;-67
2023/06/15 03:19:39;;;;;;;;;11.00;10.00;;;;;23.84;37.72;101120.44;6308130;22;45355;-66
2023/06/15 03:22:07;;;;;;;;;14.25;13.00;;;;;23.88;38.12;101129.22;6306823;22;45266;-67
2023/06/15 03:24:33;;;;;;;;;14.50;12.25;;;;;23.82;38.08;101129.72;6307410;22;45460;-67
2023/06/15 03:27:01;;;;;;;;;12.00;12.00;;;;;23.83;38.20;101128.75;6307365;22;45342;-66
2023/06/15 03:29:31;;;;;;;;;12.00;12.00;;;;;23.76;37.82;101127.50;6307876;22;45354;-67
2023/06/15 03:31:58;;;;;;;;;16.25;12.25;;;;;23.68;38.20;101114.47;6307685;22;45456;-67
2023/06/15 03:34:25;;;;;;;;;13.25;12.00;;;;;23.68;38.32;101123.50;6307974;22;45654;-67
2023/06/15 03:36:51;;;;;;;;;13.00;13.00;;;;;23.90;38.52;101162.66;6281059;22;45328;-67
2023/06/15 03:39:20;;;;;;;;;13.00;12.50;;;;;23.56;38.61;101110.91;6309142;22;45342;-66
2023/06/15 03:41:46;;;;;;;;;14.75;14.75;;;;;23.60;38.42;101123.25;6308621;22;45406;-66
2023/06/15 03:44:11;;;;;;;;;15.75;13.25;;;;;23.65;38.87;101131.94;6280840;22;48021;-67
2023/06/15 03:46:37;;;;;;;;;17.50;14.00;;;;;23.44;38.64;101106.47;6308935;22;45334;-66
2023/06/15 03:49:02;;;;;;;;;16.75;15.75;;;;;23.44;39.25;101104.59;6309414;22;45487;-66
2023/06/15 03:51:28;;;;;;;;;16.50;15.50;;;;;23.61;39.06;101140.50;6308142;22;45340;-67
2023/06/15 03:53:54;;;;;;;;;19.75;15.25;;;;;23.54;38.67;101137.41;6280505;22;47048;-66
2023/06/15 03:56:19;;;;;;;;;16.00;14.75;;;;;23.41;38.48;101114.88;6281071;22;45578;-67
2023/06/15 03:58:45;;;;;;;;;14.75;13.50;;;;;23.58;38.64;101151.66;6280722;22;45424;-67
2023/06/15 04:01:12;;;;;;;;;12.25;12.25;;;;;23.37;38.40;101116.09;6280739;22;45540;-66
2023/06/15 04:03:39;;;;;;;;;13.75;13.50;;;;;23.50;38.83;101130.47;6308857;22;45274;-66
2023/06/15 04:06:05;;;;;;;;;12.75;12.25;;;;;23.63;38.90;101161.16;6309114;22;45512;-66
2023/06/15 04:08:37;;;;;;;;;16.00;15.75;;;;;23.63;39.33;101165.75;6308749;22;45291;-67
2023/06/15 04:11:03;;;;;;;;;18.25;16.25;;;;;23.49;39.04;101145.94;6280795;22;45462;-66
2023/06/15 04:13:29;;;;;;;;;14.00;14.00;;;;;23.34;39.60;101124.50;6308278;22;46426;-66
2023/06/15 04:15:54;;;;;;;;;15.50;15.50;;;;;23.46;39.40;101140.75;6280770;22;45417;-66
2023/06/15 04:18:21;;;;;;;;;20.00;17.50;;;;;23.52;39.80;101152.13;6308969;22;45235;-67
2023/06/15 04:20:46;;;;;;;;;20.00;19.00;;;;;23.47;39.50;101147.03;6308075;22;45268;-67
2023/06/15 04:23:12;;;;;;;;;19.75;17.50;;;;;23.36;39.54;101141.63;6307932;22;45301;-66
2023/06/15 04:25:40;;;;;;;;;18.00;17.50;;;;;23.54;39.15;101171.94;6280758;22;45936;-67
2023/06/15 04:28:10;;;;;;;;;19.00;18.25;;;;;23.28;39.15;101142.22;6308430;22;45427;-67
2023/06/15 04:30:37;;;;;;;;;17.00;15.75;;;;;23.44;39.62;101174.56;6280437;22;45847;-66
2023/06/15 04:33:04;;;;;;;;;19.75;16.50;;;;;23.45;39.84;101177.13;6308893;22;46572;-66
2023/06/15 04:35:34;;;;;;;;;17.75;16.25;;;;;23.28;39.69;101153.97;6280806;22;45414;-66
2023/06/15 04:38:07;;;;;;;;;17.50;17.00;;;;;23.17;39.84;101140.38;6308937;22;45203;-66
2023/06/15 04:40:32;;;;;;;;;12.75;11.00;;;;;23.33;39.48;101169.94;6308576;22;45286;-66
2023/06/15 04:42:58;;;;;;;;;9.50;9.50;;;;;23.23;39.78;101155.34;6280172;22;48438;-66
2023/06/15 04:45:24;;;;;;;;;12.00;12.00;;;;;23.24;39.47;101162.53;6308112;22;45300;-66
2023/06/15 04:47:50;;;;;;;;;13.00;13.00;;;;;23.28;39.79;101169.47;6307575;22;45691;-66
2023/06/15 04:50:15;;;;;;;;;14.50;13.50;;;;;23.29;39.88;101171.19;6308342;22;45588;-66
2023/06/15 04:52:41;;;;;;;;;13.75;13.25;;;;;23.22;39.63;101168.09;6307918;22;45563;-66
2023/06/15 04:55:07;;;;;;;;;13.25;12.50;;;;;23.36;40.06;101190.66;6308711;22;45259;-66
2023/06/15 04:57:33;;;;;;;;;12.75;12.75;;;;;23.37;40.42;101192.38;6308356;22;45420;-67
2023/06/15 04:59:59;;;;;;;;;14.25;13.00;;;;;23.20;40.89;101163.75;6307671;22;45417;-66
2023/06/15 05:02:24;;;;;;;;;13.50;13.00;;;;;23.36;41.01;101193.38;6308458;22;45490;-66
2023/06/15 05:04:50;;;;;;;;;16.75;15.00;;;;;23.23;40.74;101177.97;6308699;22;45381;-66
2023/06/15 05:07:15;;;;;;;;;15.50;15.00;;;;;23.30;41.00;101190.16;6308295;22;45450;-66
2023/06/15 05:09:42;;;;;;;;;12.75;11.50;;;;;23.16;40.26;101176.75;6279962;22;45374;-66
2023/06/15 05:12:07;;;;;;;;;16.00;15.50;;;;;23.17;40.31;101173.03;6279434;22;47356;-66
2023/06/15 05:14:33;;;;;;;;;15.00;15.00;;;;;23.33;41.03;101190.88;6307923;22;45363;-66
2023/06/15 05:17:03;;;;;;;;;12.00;11.25;;;;;23.18;40.98;101177.47;6308082;22;45245;-66
2023/06/15 05:19:30;;;;;;;;;12.25;12.25;;;;;23.22;40.87;101186.28;6307883;22;46109;-66
2023/06/15 05:21:59;;;;;;;;;14.25;13.50;;;;;23.38;40.69;101199.56;6307733;22;46204;-66
2023/06/15 05:24:25;;;;;;;;;15.75;14.75;;;;;23.21;41.44;101179.13;6308118;22;45193;-66
2023/06/15 05:26:50;;;;;;;;;14.00;12.50;;;;;23.12;41.29;101167.97;6308461;22;45242;-67
2023/06/15 05:29:15;;;;;;;;;14.00;14.00;;;;;23.31;41.45;101194.59;6308233;22;45476;-66
2023/06/15 05:31:41;;;;;;;;;13.75;13.75;;;;;23.21;41.07;101177.25;6308239;22;45250;-66
2023/06/15 05:34:06;;;;;;;;;15.50;14.00;;;;;23.12;41.27;101180.69;6308559;22;45280;-67
2023/06/15 05:36:33;;;;;;;;;16.00;16.00;;;;;23.15;40.73;101191.34;6308135;22;45316;-67
2023/06/15 05:38:59;;;;;;;;;13.25;13.25;;;;;23.10;40.62;101183.56;6278933;22;45509;-66
2023/06/15 05:41:24;;;;;;;;;13.75;13.75;;;;;23.25;40.79;101213.28;6307979;22;46208;-66
2023/06/15 05:43:49;;;;;;;;;14.00;14.00;;;;;23.03;40.40;101181.38;6280539;22;45378;-66
2023/06/15 05:46:15;;;;;;;;;15.00;15.00;;;;;23.12;40.72;101200.63;6278906;22;45694;-66
2023/06/15 05:48:40;;;;;;;;;17.50;13.00;;;;;23.01;40.82;101186.09;6306577;22;45385;-66
2023/06/15 05:51:06;;;;;;;;;18.50;18.25;;;;;23.13;41.30;101206.94;6307762;22;45730;-66
2023/06/15 05:53:34;;;;;;;;;14.00;14.00;;;;;23.00;41.40;101179.75;6307920;22;45489;-66
2023/06/15 05:56:00;;;;;;;;;14.25;14.25;;;;;23.23;41.44;101223.44;6308098;22;45257;-66
2023/06/15 05:58:25;;;;;;;;;15.50;15.50;;;;;23.18;41.32;101204.72;6307483;22;45329;-66
2023/06/15 06:00:51;;;;;;;;;18.00;17.00;;;;;23.21;41.38;101206.34;6307950;22;46237;-66
2023/06/15 06:03:16;;;;;;;;;15.00;14.25;;;;;23.35;41.67;101230.63;6307674;22;45228;-66
2023/06/15 06:05:42;;;;;;;;;17.75;14.25;;;;;23.38;41.41;101237.69;6308310;22;45269;-66
2023/06/15 06:08:07;;;;;;;;;12.50;12.50;;;;;23.24;41.40;101201.53;6278039;22;45483;-66
2023/06/15 06:10:33;;;;;;;;;17.00;15.75;;;;;23.41;41.16;101227.41;6307192;22;45603;-66
2023/06/15 06:13:01;;;;;;;;;16.00;15.25;;;;;23.31;40.75;101223.69;6307817;22;45363;-66
2023/06/15 06:15:27;;;;;;;;;12.50;12.50;;;;;23.07;40.55;101186.50;6308521;22;45387;-66
2023/06/15 06:17:52;;;;;;;;;10.00;10.00;;;;;23.01;40.68;101177.91;6306460;22;45494;-67
2023/06/15 06:20:18;;;;;;;;;14.75;14.25;;;;;22.96;40.23;101186.44;6307813;22;45295;-66
2023/06/15 06:22:43;;;;;;;;;11.50;11.50;;;;;23.13;41.07;101218.69;6280197;22;45535;-66
2023/06/15 06:25:09;;;;;;;;;11.50;11.50;;;;;23.11;40.71;101209.78;6308281;22;45251;-66
2023/06/15 06:27:34;;;;;;;;;10.25;10.00;;;;;22.97;40.84;101187.28;6307324;22;45643;-66
2023/06/15 06:30:01;;;;;;;;;12.00;11.50;;;;;23.11;40.85;101208.91;6306915;22;46307;-66
2023/06/15 06:32:26;;;;;;;;;16.00;13.00;;;;;23.18;40.21;101220.19;6278915;22;45608;-66
2023/06/15 06:34:54;;;;;;;;;12.00;12.00;;;;;23.28;40.15;101237.53;6307623;22;45278;-66
2023/06/15 06:37:20;;;;;;;;;15.00;12.75;;;;;23.01;40.62;101195.13;6307007;22;45409;-66
2023/06/15 06:39:45;;;;;;;;;15.50;12.75;;;;;23.02;41.74;101201.41;6306369;22;46242;-66
2023/06/15 06:42:11;;;;;;;;;14.25;12.50;;;;;23.30;41.02;101233.72;6306559;22;45333;-66
2023/06/15 06:44:37;;;;;;;;;14.00;13.50;;;;;23.07;40.49;101200.13;6306442;22;45278;-66
2023/06/15 06:47:03;;;;;;;;;14.75;13.75;;;;;23.35;40.87;101252.41;6305386;22;45480;-66
2023/06/15 06:49:29;;;;;;;;;17.25;15.00;;;;;23.21;41.24;101228.13;6306708;22;45394;-66
2023/06/15 06:51:54;;;;;;;;;14.00;13.50;;;;;23.23;41.27;101235.19;6307054;22;45276;-66
2023/06/15 06:54:20;;;;;;;;;15.00;13.00;;;;;23.21;40.53;101237.16;6278785;22;45288;-66
2023/06/15 06:56:46;;;;;;;;;18.75;15.00;;;;;23.15;41.02;101224.00;6277927;22;45284;-66
2023/06/15 06:59:12;;;;;;;;;14.50;13.75;;;;;23.26;41.10;101242.25;6279791;22;45937;-66
2023/06/15 07:01:37;;;;;;;;;14.00;14.00;;;;;23.22;41.17;101229.84;6307980;22;45274;-66
2023/06/15 07:04:02;;;;;;;;;13.25;13.00;;;;;23.25;40.75;101230.47;6307646;22;45361;-65
2023/06/15 07:06:28;;;;;;;;;13.50;12.50;;;;;23.21;41.31;101225.41;6307745;22;45454;-65
2023/06/15 07:08:53;;;;;;;;;14.00;12.75;;;;;23.40;41.40;101255.63;6307165;22;46234;-65
2023/06/15 07:11:19;;;;;;;;;18.25;16.00;;;;;23.39;41.31;101255.75;6280337;22;45754;-65
2023/06/15 07:13:45;;;;;;;;;13.25;13.25;;;;;23.39;40.78;101240.31;6308224;22;45328;-61
2023/06/15 07:16:11;;;;;;;;;13.50;13.00;;;;;23.36;40.62;101234.22;6307573;22;45339;-61
2023/06/15 07:18:36;;;;;;;;;15.75;12.75;;;;;23.61;40.64;101272.16;6303540;22;45496;-61
2023/06/15 07:21:02;;;;;;;;;14.25;14.25;;;;;23.71;40.67;101268.72;6306950;22;45330;-61
2023/06/15 07:23:28;;;;;;;;;13.25;11.75;;;;;23.59;40.57;101254.19;6308069;22;45392;-61
2023/06/15 07:25:54;;;;;;;;;15.50;15.50;;;;;23.51;40.68;101235.75;6278829;22;45454;-61
2023/06/15 07:28:20;;;;;;;;;15.50;12.75;;;;;23.64;40.97;101252.00;6307845;22;46106;-61
2023/06/15 07:30:51;;;;;;;;;14.50;14.25;;;;;23.68;40.47;101253.47;6308737;22;45193;-61
2023/06/15 07:33:17;;;;;;;;;10.75;10.25;;;;;23.76;40.37;101256.44;6308741;22;45372;-61
2023/06/15 07:35:43;;;;;;;;;10.75;8.50;;;;;23.61;40.44;101228.56;6280242;22;45353;-62
2023/06/15 07:38:08;;;;;;;;;19.75;17.25;;;;;23.92;40.47;101275.19;6279532;22;46501;-61
2023/06/15 07:40:34;;;;;;;;;13.75;13.00;;;;;23.95;40.73;101276.81;6308015;22;45227;-61
2023/06/15 07:42:59;;;;;;;;;14.50;14.00;;;;;24.03;40.21;101286.09;6308203;22;45458;-62
2023/06/15 07:45:25;;;;;;;;;14.25;13.75;;;;;23.98;39.79;101269.25;6307732;22;45269;-62
2023/06/15 07:47:50;;;;;;;;;21.50;20.25;;;;;23.94;40.07;101247.78;6308098;22;45528;-62
2023/06/15 07:50:15;;;;;;;;;15.75;15.75;;;;;24.03;39.90;101256.09;6308467;22;45301;-62
2023/06/15 07:52:41;;;;;;;;;11.75;11.25;;;;;24.13;39.18;101267.13;6307873;22;45310;-61
2023/06/15 07:55:07;;;;;;;;;10.25;10.25;;;;;24.26;39.47;101279.75;6308865;22;45419;-62
2023/06/15 07:57:34;;;;;;;;;11.25;11.25;;;;;24.21;39.25;101255.59;6276218;22;46901;-61
2023/06/15 08:00:00;;;;;;;;;10.50;10.50;;;;;24.18;39.51;101250.41;6278150;22;45672;-61
2023/06/15 08:02:25;;;;;;;;;9.25;9.25;;;;;24.38;38.46;101271.44;6307582;22;45383;-62
2023/06/15 08:04:50;;;;;;;;;11.00;10.75;;;;;24.59;38.32;101282.47;6306767;22;45369;-62
2023/06/15 08:07:16;;;;;;;;;9.25;8.50;;;;;24.66;38.02;101295.59;6306283;22;46215;-62
2023/06/15 08:09:42;;;;;;;;;11.50;10.25;;;;;24.69;38.05;101289.88;6279637;22;46063;-61
2023/06/15 08:12:08;;;;;;;;;10.00;10.00;;;;;24.59;38.61;101281.59;6305276;22;45716;-61
2023/06/15 08:14:35;;;;;;;;;11.25;11.25;;;;;24.63;37.75;101272.16;6307378;22;45472;-62
2023/06/15 08:17:01;;;;;;;;;10.75;10.00;;;;;24.67;37.71;101267.31;6306546;22;45516;-61
2023/06/15 08:19:27;;;;;;;;;9.50;9.50;;;;;24.87;37.55;101299.25;6307554;22;45298;-62
2023/06/15 08:21:52;;;;;;;;;12.25;12.25;;;;;24.88;38.08;101298.28;6307234;22;45303;-62
2023/06/15 08:24:17;;;;;;;;;10.00;9.75;;;;;24.85;38.23;101278.56;6278808;22;45540;-62
2023/06/15 08:26:43;;;;;;;;;10.75;10.75;;;;;24.85;37.65;101273.09;6306970;22;46223;-62
2023/06/15 08:29:08;;;;;;;;;10.50;10.50;;;;;24.89;37.74;101271.81;6306494;22;45402;-62
2023/06/15 08:31:35;;;;;;;;;10.00;10.00;;;;;24.83;37.67;101255.97;6279270;22;45628;-61
2023/06/15 08:34:00;;;;;;;;;11.25;11.25;;;;;25.10;37.44;101291.84;6279641;22;45891;-61
2023/06/15 08:36:26;;;;;;;;;12.50;11.75;;;;;25.09;37.59;101295.59;6307383;22;46625;-62
2023/06/15 08:38:51;;;;;;;;;10.75;10.75;;;;;25.19;37.36;101297.53;6307142;22;45326;-61
2023/06/15 08:41:19;;;;;;;;;13.00;11.75;;;;;25.05;37.89;101268.66;6307213;22;45550;-62
2023/06/15 08:43:46;;;;;;;;;12.50;10.00;;;;;25.20;37.44;101286.47;6307318;22;45439;-61
2023/06/15 08:46:12;;;;;;;;;15.25;14.25;;;;;25.27;37.49;101282.22;6304736;22;47596;-62
2023/06/15 08:48:41;;;;;;;;;14.00;13.25;;;;;25.20;37.38;101280.16;6278834;22;45431;-61
2023/06/15 08:51:09;;;;;;;;;11.75;10.50;;;;;25.22;37.44;101270.81;6307313;22;45394;-62
2023/06/15 08:53:37;;;;;;;;;9.75;9.75;;;;;25.22;37.21;101273.53;6306882;22;45214;-62
2023/06/15 08:56:06;;;;;;;;;10.00;9.50;;;;;25.44;36.72;101280.78;6307037;22;45372;-62
2023/06/15 08:58:32;;;;;;;;;13.00;10.25;;;;;25.37;36.70;101270.53;6306777;22;45347;-61
2023/06/15 09:01:00;;;;;;;;;12.75;12.75;;;;;25.39;35.96;101263.06;6307453;22;45372;-62
2023/06/15 09:03:26;;;;;;;;;11.50;11.50;;;;;25.58;36.88;101290.50;6278359;22;45314;-62
2023/06/15 09:05:51;;;;;;;;;11.00;9.75;;;;;25.50;36.69;101277.50;6304798;22;45529;-61
2023/06/15 09:08:17;;;;;;;;;10.25;10.25;;;;;25.47;36.76;101261.38;6305524;22;45359;-61
2023/06/15 09:10:42;;;;;;;;;11.25;9.00;;;;;25.69;36.21;101293.19;6278078;22;45308;-62
2023/06/15 09:13:17;;;;;;;;;11.75;11.00;;;;;25.74;36.81;101300.09;6305114;22;45374;-62
2023/06/15 09:15:50;;;;;;;;;13.75;12.00;;;;;25.71;36.17;101282.13;6307375;22;45348;-62
2023/06/15 09:18:15;;;;;;;;;9.75;9.75;;;;;25.58;36.11;101268.66;6277603;22;45856;-61
2023/06/15 09:20:41;;;;;;;;;12.25;11.25;;;;;25.56;35.64;101248.78;6307471;22;45378;-61
2023/06/15 09:23:11;;;;;;;;;11.00;10.00;;;;;25.69;35.80;101267.69;6307146;22;45601;-62
2023/06/15 09:25:36;;;;;;;;;10.00;9.50;;;;;25.70;35.66;101272.16;6306391;22;45448;-61
2023/06/15 09:28:05;;;;;;;;;7.50;6.75;;;;;25.79;35.51;101290.47;6306433;22;45240;-62
2023/06/15 09:30:38;;;;;;;;;9.75;9.75;;;;;25.91;35.50;101295.88;6306715;22;45325;-62
2023/06/15 09:33:18;;;;;;;;;11.75;10.25;;;;;25.94;35.62;101299.19;6305215;22;45339;-62
2023/06/15 09:35:59;;;;;;;;;10.25;9.50;;;;;25.98;35.92;101289.75;6306860;22;45582;-61
2023/06/15 09:38:44;;;;;;;;;12.00;11.50;;;;;25.96;35.75;101285.41;6306863;22;45575;-62
2023/06/15 09:41:10;;;;;;;;;9.50;9.50;;;;;25.93;35.23;101272.88;6306056;22;45476;-62
2023/06/15 09:43:40;;;;;;;;;9.75;8.75;;;;;26.02;35.57;101283.00;6278090;22;45642;-61
2023/06/15 09:46:15;;;;;;;;;10.00;10.00;;;;;26.07;35.37;101279.84;6306742;22;45612;-61
2023/06/15 09:48:43;;;;;;;;;12.25;11.00;;;;;26.02;35.04;101274.78;6278449;22;45495;-61
2023/06/15 09:51:09;;;;;;;;;10.00;9.25;;;;;26.05;34.80;101276.41;6305245;22;45380;-62
2023/06/15 09:53:36;;;;;;;;;10.75;9.75;;;;;26.12;34.40;101277.56;6298636;22;45700;-61
2023/06/15 09:56:02;;;;;;;;;10.75;8.75;;;;;26.21;34.60;101286.81;6307219;22;46464;-61
2023/06/15 09:58:28;;;;;;;;;8.00;8.00;;;;;26.06;34.55;101265.31;6307059;22;45418;-61
2023/06/15 10:00:57;;;;;;;;;8.00;6.00;;;;;26.03;33.95;101254.66;6308088;22;45411;-61
2023/06/15 10:03:24;;;;;;;;;11.25;9.25;;;;;26.03;33.81;101259.28;6279919;22;45355;-62
2023/06/15 10:05:54;;;;;;;;;11.75;11.00;;;;;26.16;34.84;101278.16;6300782;22;45390;-62
2023/06/15 10:08:26;;;;;;;;;6.00;5.75;;;;;26.28;34.04;101296.22;6278373;22;45603;-62
2023/06/15 10:10:54;;;;;;;;;11.25;11.25;;;;;26.20;34.74;101277.75;6308009;22;45424;-61
2023/06/15 10:13:26;;;;;;;;;13.25;13.25;;;;;26.22;34.77;101274.88;6307539;22;45343;-62
2023/06/15 10:15:55;;;;;;;;;14.50;12.25;;;;;26.21;34.38;101264.91;6307641;22;46294;-61
2023/06/15 10:18:22;;;;;;;;;11.00;11.00;;;;;26.41;33.77;101294.09;6278046;22;45761;-61
2023/06/15 10:20:53;;;;;;;;;11.25;11.25;;;;;26.35;33.89;101282.84;6280290;22;45358;-61
2023/06/15 10:23:25;;;;;;;;;11.00;11.00;;;;;26.21;33.46;101256.72;6306962;22;45512;-61
2023/06/15 10:25:55;;;;;;;;;8.75;8.75;;;;;26.38;33.79;101268.84;6307663;22;46422;-61
2023/06/15 10:28:23;;;;;;;;;12.00;12.00;;;;;26.36;33.63;101262.66;6306877;22;45583;-61
2023/06/15 10:30:57;;;;;;;;;11.00;11.00;;;;;26.55;33.21;101291.97;6308221;22;45269;-61
2023/06/15 10:33:40;;;;;;;;;13.25;12.75;;;;;26.43;32.67;101259.25;6279098;22;45255;-62
2023/06/15 10:36:25;;;;;;;;;14.50;12.50;;;;;26.62;33.11;101283.03;6279550;22;46284;-61
2023/06/15 10:39:21;;;;;;;;;13.50;11.75;;;;;26.70;33.12;101287.00;6279529;22;45394;-61
2023/06/15 10:41:50;;;;;;;;;12.25;11.00;;;;;26.56;32.83;101259.00;6306638;22;45460;-61
2023/06/15 10:44:16;;;;;;;;;14.00;14.00;;;;;26.65;32.75;101261.88;6306838;22;45286;-61
2023/06/15 10:46:41;;;;;;;;;11.25;11.00;;;;;26.64;32.71;101261.03;6307162;22;45377;-62
2023/06/15 10:49:09;;;;;;;;;14.50;12.75;;;;;26.84;32.90;101281.09;6307723;22;45183;-62
2023/06/15 10:51:36;;;;;;;;;11.75;11.75;;;;;26.75;33.19;101263.66;6279767;22;45469;-62
2023/06/15 10:54:05;;;;;;;;;16.75;14.50;;;;;26.90;32.57;101275.03;6307106;22;45244;-61
2023/06/15 10:56:31;;;;;;;;;12.75;11.25;;;;;26.76;32.85;101256.28;6278750;22;47010;-62
2023/06/15 10:59:07;;;;;;;;;13.50;13.50;;;;;26.94;32.99;101279.22;6307652;22;45366;-62
2023/06/15 11:01:33;;;;;;;;;13.25;13.25;;;;;26.81;33.09;101256.72;6307867;22;45394;-61
2023/06/15 11:04:00;;;;;;;;;13.75;13.25;;;;;26.89;32.38;101259.59;6307531;22;45339;-62
2023/06/15 11:06:33;;;;;;;;;13.50;11.75;;;;;27.06;32.19;101285.41;6307689;22;45327;-62
2023/06/15 11:09:05;;;;;;;;;15.50;14.50;;;;;26.91;31.85;101254.84;6279061;22;45984;-62
2023/06/15 11:11:35;;;;;;;;;15.00;14.00;;;;;26.89;32.15;101248.66;6306982;22;45196;-61